Time;durP1;ratioP1;P1;durP2;ratioP2;P2;SDS_P1;SDS_P2;PMS_P1;PMS_P2;Temp;Humidity;BMP_temperature;BMP_pressure;BME280_temperature;BME280_humidity;BME280_pressure;Samples;Min_cycle;Max_cycle;Signal;HPM_P1;HPM_P2
2022/01/14 00:01:00;;;;;;;51.08;12.15;;;1.70;99.90;;;;;;10346524;28;20128;-61
2022/01/14 00:06:02;;;;;;;38.10;10.70;;;1.80;99.90;;;;;;10342632;28;20697;-61
2022/01/14 00:11:04;;;;;;;44.92;11.88;;;1.80;99.90;;;;;;10345230;28;20062;-61
2022/01/14 00:16:05;;;;;;;48.80;12.43;;;1.70;99.90;;;;;;10341658;28;20070;-61
2022/01/14 00:21:07;;;;;;;57.42;12.50;;;1.80;99.90;;;;;;10343569;28;20058;-61
2022/01/14 00:31:43;;;;;;;57.53;13.30;;;1.70;99.90;;;;;;10338714;28;20056;-61
2022/01/14 00:36:45;;;;;;;73.45;14.25;;;1.80;99.90;;;;;;10344371;28;20045;-61
2022/01/14 00:41:47;;;;;;;70.63;12.43;;;1.70;99.90;;;;;;10343969;28;20072;-60
2022/01/14 00:46:50;;;;;;;116.78;14.43;;;1.70;99.90;;;;;;10344412;28;20497;-61
2022/01/14 00:51:51;;;;;;;47.05;12.02;;;1.70;99.90;;;;;;10341981;28;20053;-61
2022/01/14 00:57:15;;;;;;;107.05;13.48;;;1.70;99.90;;;;;;10341682;28;20049;-61
2022/01/14 01:02:17;;;;;;;60.53;12.30;;;1.60;99.90;;;;;;10342824;28;20124;-61
2022/01/14 01:07:19;;;;;;;69.88;12.25;;;1.70;99.90;;;;;;10337203;28;20475;-61
2022/01/14 01:12:41;;;;;;;102.68;13.52;;;1.60;99.90;;;;;;10347021;28;20046;-61
2022/01/14 01:17:44;;;;;;;119.82;16.52;;;1.60;99.90;;;;;;10334190;28;20493;-61
2022/01/14 01:22:48;;;;;;;109.07;14.65;;;1.50;99.90;;;;;;10335899;28;20064;-61
2022/01/14 01:27:53;;;;;;;75.68;13.30;;;1.50;99.90;;;;;;10340735;28;20069;-61
2022/01/14 01:32:55;;;;;;;75.45;11.02;;;1.20;99.90;;;;;;10340178;28;20042;-61
2022/01/14 01:37:57;;;;;;;76.55;11.20;;;1.30;99.90;;;;;;10337649;28;20100;-61
2022/01/14 01:43:03;;;;;;;73.43;10.80;;;1.30;99.90;;;;;;10338729;28;20066;-62
2022/01/14 01:48:05;;;;;;;80.28;12.35;;;1.30;99.90;;;;;;10347757;28;20046;-61
2022/01/14 01:53:06;;;;;;;128.93;11.35;;;1.30;99.90;;;;;;10337419;28;20136;-61
2022/01/14 01:58:08;;;;;;;175.20;13.98;;;1.00;99.90;;;;;;10348315;28;20045;-61
2022/01/14 02:03:12;;;;;;;143.68;16.98;;;1.00;99.90;;;;;;10353322;28;20116;-61
2022/01/14 02:08:14;;;;;;;105.82;13.35;;;1.00;99.90;;;;;;10341359;28;20061;-61
2022/01/14 02:13:16;;;;;;;80.03;12.20;;;1.10;99.90;;;;;;10345537;28;20434;-62
2022/01/14 02:23:23;;;;;;;82.30;14.10;;;1.00;99.90;;;;;;10348963;28;20058;-61
2022/01/14 02:28:25;;;;;;;124.10;14.95;;;1.10;99.90;;;;;;10348441;28;20123;-61
2022/01/14 02:33:27;;;;;;;166.77;17.05;;;1.10;99.90;;;;;;10343591;28;20108;-61
2022/01/14 02:38:29;;;;;;;130.65;12.68;;;0.90;99.90;;;;;;10351141;28;20049;-61
2022/01/14 02:43:32;;;;;;;85.60;11.25;;;0.80;99.90;;;;;;10345753;28;20046;-60
2022/01/14 02:48:34;;;;;;;108.50;14.35;;;0.80;99.90;;;;;;10347223;28;20051;-61
2022/01/14 02:58:41;;;;;;;141.02;14.75;;;0.80;99.90;;;;;;10352934;28;20050;-61
2022/01/14 03:03:45;;;;;;;163.27;13.35;;;0.70;99.90;;;;;;10344299;28;20050;-62
2022/01/14 03:08:47;;;;;;;97.63;11.10;;;0.80;99.90;;;;;;10345385;28;20046;-62
2022/01/14 03:13:49;;;;;;;76.20;9.15;;;0.90;99.90;;;;;;10344555;28;20081;-62
2022/01/14 03:18:53;;;;;;;55.55;8.93;;;0.90;99.90;;;;;;10353281;28;20064;-62
2022/01/14 03:24:19;;;;;;;63.85;10.40;;;0.90;99.90;;;;;;10341660;28;20049;-62
2022/01/14 03:29:20;;;;;;;114.35;12.50;;;0.90;99.90;;;;;;10346535;28;20050;-62
2022/01/14 03:34:22;;;;;;;74.57;10.70;;;0.80;99.90;;;;;;10340872;28;20084;-62
2022/01/14 03:39:24;;;;;;;169.07;13.82;;;0.80;99.90;;;;;;10345069;28;20062;-62
2022/01/14 03:44:26;;;;;;;89.30;12.23;;;0.70;99.90;;;;;;10343796;28;20091;-62
2022/01/14 03:49:27;;;;;;;97.20;11.88;;;0.90;99.90;;;;;;10351440;28;20124;-62
2022/01/14 03:54:30;;;;;;;88.35;12.65;;;0.90;99.90;;;;;;10343884;28;20380;-62
2022/01/14 03:59:32;;;;;;;109.93;10.98;;;0.80;99.90;;;;;;10344727;28;20128;-61
2022/01/14 04:04:35;;;;;;;105.85;10.85;;;0.80;99.90;;;;;;10343600;28;20108;-62
2022/01/14 04:09:37;;;;;;;74.75;10.73;;;0.70;99.90;;;;;;10342499;28;20045;-62
2022/01/14 04:19:47;;;;;;;80.07;9.85;;;0.80;99.90;;;;;;10343605;28;20353;-62
2022/01/14 04:24:48;;;;;;;52.08;8.80;;;0.80;99.90;;;;;;10342855;28;20488;-62
2022/01/14 04:29:50;;;;;;;77.60;10.75;;;0.90;99.90;;;;;;10337549;28;20046;-62
2022/01/14 04:34:52;;;;;;;65.47;10.65;;;0.80;99.90;;;;;;10343639;28;20046;-62
2022/01/14 04:39:53;;;;;;;100.13;10.43;;;0.60;99.90;;;;;;10346756;28;20531;-62
2022/01/14 04:44:56;;;;;;;138.27;11.13;;;0.60;99.90;;;;;;10344149;28;20108;-62
2022/01/14 04:49:59;;;;;;;105.13;11.18;;;0.60;99.90;;;;;;10342065;28;20058;-62
2022/01/14 04:55:01;;;;;;;91.43;11.45;;;0.70;99.90;;;;;;10341202;28;20168;-62
2022/01/14 05:00:06;;;;;;;90.03;10.85;;;0.70;99.90;;;;;;10342153;28;20127;-62
2022/01/14 05:05:09;;;;;;;60.58;9.43;;;0.60;99.90;;;;;;10335674;28;20173;-62
2022/01/14 05:10:25;;;;;;;56.90;7.47;;;0.70;99.90;;;;;;10339462;28;20073;-62
2022/01/14 05:15:27;;;;;;;51.92;7.88;;;0.70;99.90;;;;;;10342543;28;20096;-62
2022/01/14 05:20:28;;;;;;;69.40;7.88;;;0.70;99.90;;;;;;10348807;28;20112;-63
2022/01/14 05:25:30;;;;;;;83.47;8.25;;;0.70;99.90;;;;;;10342842;28;20069;-62
2022/01/14 05:30:32;;;;;;;76.00;7.88;;;0.80;99.90;;;;;;10345676;28;20156;-62
2022/01/14 05:35:34;;;;;;;42.95;8.20;;;0.70;99.90;;;;;;10353611;28;20144;-64
2022/01/14 05:40:35;;;;;;;49.95;7.35;;;0.70;99.90;;;;;;10349647;28;20068;-62
2022/01/14 05:45:37;;;;;;;63.97;9.15;;;0.50;99.90;;;;;;10350917;28;20868;-62
2022/01/14 05:50:39;;;;;;;74.97;9.55;;;0.70;99.90;;;;;;10347598;28;20141;-62
2022/01/14 05:55:40;;;;;;;88.65;9.63;;;0.70;99.90;;;;;;10349269;28;20046;-63
2022/01/14 06:00:42;;;;;;;98.22;9.70;;;0.40;99.90;;;;;;10352193;28;20046;-62
2022/01/14 06:05:44;;;;;;;82.25;9.10;;;0.50;99.90;;;;;;10345698;28;20489;-62
2022/01/14 06:10:45;;;;;;;92.57;8.25;;;0.30;99.90;;;;;;10351100;28;20042;-59
2022/01/14 06:15:47;;;;;;;75.65;7.30;;;0.30;99.90;;;;;;10347460;28;20132;-59
2022/01/14 06:20:49;;;;;;;105.03;8.38;;;0.30;99.90;;;;;;10346287;28;20107;-59
2022/01/14 06:25:50;;;;;;;89.25;8.93;;;0.20;99.90;;;;;;10349121;28;20046;-59
2022/01/14 06:30:52;;;;;;;63.65;8.77;;;0.20;99.90;;;;;;10341370;28;20140;-59
2022/01/14 06:35:54;;;;;;;60.40;7.35;;;0.20;99.90;;;;;;10341722;28;20049;-60
2022/01/14 06:40:56;;;;;;;34.90;7.15;;;0.20;99.90;;;;;;10347563;28;20046;-60
2022/01/14 06:45:58;;;;;;;62.38;8.57;;;0.20;99.90;;;;;;10343687;28;20050;-60
2022/01/14 06:51:00;;;;;;;58.17;7.93;;;0.20;99.90;;;;;;10342109;28;20050;-61
2022/01/14 06:56:02;;;;;;;38.92;8.75;;;0.20;99.90;;;;;;10342748;28;20058;-61
2022/01/14 07:01:04;;;;;;;49.80;7.20;;;0.10;99.90;;;;;;10344974;28;20576;-61
2022/01/14 07:06:06;;;;;;;46.90;7.65;;;0.10;99.90;;;;;;10349555;28;20080;-60
2022/01/14 07:11:08;;;;;;;45.40;7.15;;;0.10;99.90;;;;;;10342392;28;20119;-61
2022/01/14 07:16:10;;;;;;;73.20;8.43;;;0.20;99.90;;;;;;10344125;28;20052;-61
2022/01/14 07:21:11;;;;;;;60.80;7.93;;;0.10;99.90;;;;;;10344985;28;20408;-63
2022/01/14 07:26:13;;;;;;;79.13;7.78;;;0.10;99.90;;;;;;10339645;28;20077;-63
2022/01/14 07:31:15;;;;;;;53.25;8.40;;;0.00;99.90;;;;;;10341010;28;20127;-63
2022/01/14 07:36:17;;;;;;;86.18;8.57;;;0.20;99.90;;;;;;10349909;28;20136;-63
2022/01/14 07:41:18;;;;;;;102.45;10.05;;;0.20;99.90;;;;;;10342497;28;20145;-63
2022/01/14 07:46:20;;;;;;;71.43;9.27;;;0.20;99.90;;;;;;10349198;28;20049;-63
2022/01/14 07:51:22;;;;;;;59.47;7.82;;;0.20;99.90;;;;;;10345652;28;20088;-63
2022/01/14 07:56:23;;;;;;;55.45;7.47;;;0.20;99.90;;;;;;10346414;28;20397;-63
2022/01/14 08:01:26;;;;;;;50.10;8.48;;;0.20;99.90;;;;;;10346346;28;20417;-64
2022/01/14 08:06:31;;;;;;;51.53;7.18;;;0.30;99.90;;;;;;10340869;28;20054;-63
2022/01/14 08:11:33;;;;;;;48.70;8.10;;;0.30;99.90;;;;;;10344153;28;20127;-63
2022/01/14 08:16:35;;;;;;;58.50;9.57;;;0.30;99.90;;;;;;10342804;28;20049;-64
2022/01/14 08:21:37;;;;;;;71.47;7.47;;;0.30;99.90;;;;;;10342838;28;20053;-63
2022/01/14 08:26:38;;;;;;;28.92;5.90;;;0.40;99.90;;;;;;10339886;28;20169;-63
2022/01/14 08:31:40;;;;;;;94.88;10.35;;;0.30;99.90;;;;;;10341213;28;20112;-63
2022/01/14 08:36:42;;;;;;;58.30;9.10;;;0.20;99.90;;;;;;10342874;28;20088;-63
2022/01/14 08:41:44;;;;;;;56.70;8.30;;;0.20;99.90;;;;;;10343218;28;20041;-63
2022/01/14 08:46:45;;;;;;;40.38;8.38;;;0.10;99.90;;;;;;10343252;28;20065;-63
2022/01/14 08:51:49;;;;;;;65.80;9.93;;;0.20;99.90;;;;;;10341586;28;20074;-63
2022/01/14 08:56:51;;;;;;;27.42;8.02;;;0.10;99.90;;;;;;10340922;28;20057;-63
2022/01/14 09:01:53;;;;;;;35.45;7.40;;;0.20;99.90;;;;;;10345502;28;20425;-64
2022/01/14 09:06:55;;;;;;;36.75;6.78;;;0.30;99.90;;;;;;10337895;28;20092;-64
2022/01/14 09:11:57;;;;;;;24.38;6.53;;;0.30;99.90;;;;;;10340695;28;20054;-63
2022/01/14 09:16:59;;;;;;;36.90;8.40;;;0.30;99.90;;;;;;10340198;28;20049;-63
2022/01/14 09:22:00;;;;;;;22.48;7.45;;;0.30;99.90;;;;;;10341799;28;20077;-64
2022/01/14 09:27:18;;;;;;;33.53;9.07;;;0.30;99.90;;;;;;10356823;28;20054;-64
2022/01/14 09:32:21;;;;;;;33.42;7.78;;;0.30;99.90;;;;;;10344657;28;20345;-64
2022/01/14 09:37:23;;;;;;;29.38;7.72;;;0.40;99.90;;;;;;10336085;28;20054;-63
2022/01/14 09:42:25;;;;;;;33.13;8.10;;;0.30;99.90;;;;;;10333784;28;20105;-64
2022/01/14 09:47:26;;;;;;;34.35;8.10;;;0.20;99.90;;;;;;10338628;28;20120;-63
2022/01/14 09:52:28;;;;;;;33.47;9.10;;;0.30;99.90;;;;;;10343209;28;20439;-63
2022/01/14 09:57:30;;;;;;;34.35;8.45;;;0.40;99.90;;;;;;10341827;28;20065;-63
2022/01/14 10:02:37;;;;;;;30.58;7.00;;;0.40;99.90;;;;;;10334191;28;20135;-63
2022/01/14 10:07:39;;;;;;;37.35;8.02;;;0.40;99.90;;;;;;10345215;28;20053;-63
2022/01/14 10:12:41;;;;;;;31.23;7.75;;;0.40;99.90;;;;;;10350058;28;20050;-63
2022/01/14 10:17:45;;;;;;;28.58;7.45;;;0.60;99.90;;;;;;10347354;28;20456;-63
2022/01/14 10:22:54;;;;;;;33.25;9.48;;;0.50;99.90;;;;;;10343947;28;20141;-63
2022/01/14 10:27:56;;;;;;;29.33;8.05;;;0.50;99.90;;;;;;10340014;28;20084;-63
2022/01/14 10:33:01;;;;;;;28.60;8.23;;;0.50;99.90;;;;;;10345716;28;20050;-63
2022/01/14 10:38:06;;;;;;;35.88;8.95;;;0.70;99.90;;;;;;10350021;28;20400;-63
2022/01/14 10:43:09;;;;;;;32.90;9.75;;;1.00;99.90;;;;;;10343337;28;20041;-63
2022/01/14 10:48:34;;;;;;;31.45;9.63;;;1.20;99.90;;;;;;10348488;28;20114;-63
2022/01/14 10:53:42;;;;;;;25.63;8.05;;;1.40;99.90;;;;;;10345651;28;20059;-63
2022/01/14 10:58:46;;;;;;;20.45;6.70;;;1.60;99.90;;;;;;10347232;28;20042;-63
2022/01/14 11:03:56;;;;;;;19.67;7.90;;;1.20;99.90;;;;;;10342925;28;20057;-63
2022/01/14 11:09:03;;;;;;;29.75;9.07;;;0.90;99.90;;;;;;10339335;28;20049;-63
2022/01/14 11:14:07;;;;;;;21.90;7.45;;;0.70;99.90;;;;;;10342557;28;20064;-63
2022/01/14 11:19:09;;;;;;;24.80;7.90;;;0.70;99.90;;;;;;10347449;28;20054;-63
2022/01/14 11:24:20;;;;;;;27.95;8.40;;;0.80;99.90;;;;;;10343406;28;20057;-64
2022/01/14 11:29:23;;;;;;;20.85;7.75;;;0.80;99.90;;;;;;10342661;28;20104;-64
2022/01/14 11:34:30;;;;;;;22.98;7.60;;;0.90;99.90;;;;;;10341295;28;20053;-63
2022/01/14 11:39:36;;;;;;;24.58;9.60;;;0.90;99.90;;;;;;10342959;28;20050;-63
2022/01/14 11:44:46;;;;;;;31.30;9.88;;;0.80;99.90;;;;;;10345320;28;20049;-63
2022/01/14 11:49:48;;;;;;;24.33;9.40;;;0.70;99.90;;;;;;10342278;28;20107;-63
2022/01/14 11:54:50;;;;;;;25.30;8.98;;;0.70;99.90;;;;;;10341622;28;20137;-63
2022/01/14 11:59:51;;;;;;;17.80;7.70;;;0.60;99.90;;;;;;10347557;28;20049;-63
2022/01/14 12:05:05;;;;;;;22.70;9.00;;;0.60;99.90;;;;;;10336402;28;20053;-63
2022/01/14 12:10:09;;;;;;;23.00;8.70;;;0.90;99.90;;;;;;10340552;28;20046;-63
2022/01/14 12:15:54;;;;;;;30.60;9.10;;;0.70;99.90;;;;;;10340940;28;20130;-63
2022/01/14 12:20:58;;;;;;;27.85;10.02;;;0.80;99.90;;;;;;10339922;28;20145;-63
2022/01/14 12:26:14;;;;;;;22.75;7.72;;;1.00;99.90;;;;;;10338749;28;20077;-63
2022/01/14 12:31:16;;;;;;;26.70;9.35;;;0.80;99.90;;;;;;10343655;28;20106;-63
2022/01/14 12:36:20;;;;;;;30.98;9.80;;;0.80;99.90;;;;;;10343872;28;20046;-63
2022/01/14 12:41:24;;;;;;;22.58;8.45;;;0.90;99.90;;;;;;10337249;28;20123;-63
2022/01/14 12:46:45;;;;;;;25.38;9.02;;;0.90;99.90;;;;;;10341794;28;20057;-63
2022/01/14 12:52:06;;;;;;;24.35;8.75;;;0.90;99.90;;;;;;10341958;28;20091;-62
2022/01/14 12:57:08;;;;;;;21.20;8.68;;;0.90;99.90;;;;;;10341869;28;20133;-63
2022/01/14 13:02:21;;;;;;;25.70;9.73;;;1.00;99.90;;;;;;10337567;28;20042;-63
2022/01/14 13:07:26;;;;;;;21.80;8.40;;;1.30;99.90;;;;;;10341327;28;20057;-63
2022/01/14 13:12:33;;;;;;;24.60;9.85;;;1.40;99.90;;;;;;10329553;28;20053;-62
2022/01/14 13:17:40;;;;;;;31.47;10.40;;;1.40;99.90;;;;;;10335745;28;20054;-62
2022/01/14 13:22:44;;;;;;;31.15;9.63;;;1.40;99.90;;;;;;10342147;28;20123;-62
2022/01/14 13:27:55;;;;;;;28.23;9.90;;;1.50;99.90;;;;;;10340463;28;20081;-63
2022/01/14 13:32:59;;;;;;;34.90;10.77;;;1.70;99.90;;;;;;10331489;28;20752;-62
2022/01/14 13:38:04;;;;;;;25.77;9.95;;;1.80;99.90;;;;;;10342202;28;20054;-63
2022/01/14 13:43:20;;;;;;;28.05;10.38;;;2.00;99.90;;;;;;10343127;28;20496;-62
2022/01/14 13:48:25;;;;;;;26.42;9.95;;;2.20;99.90;;;;;;10349760;28;20046;-61
2022/01/14 13:53:36;;;;;;;24.13;9.43;;;2.20;99.90;;;;;;10349071;28;20057;-62
2022/01/14 13:58:39;;;;;;;27.00;10.55;;;2.30;99.90;;;;;;10352639;28;20054;-61
2022/01/14 14:03:54;;;;;;;26.63;9.10;;;2.40;99.90;;;;;;10350680;28;20045;-61
2022/01/14 14:19:46;;;;;;;28.58;9.48;;;2.20;99.90;;;;;;10348866;28;20053;-61
2022/01/14 14:25:01;;;;;;;27.17;9.57;;;2.30;99.90;;;;;;10348764;28;20045;-61
2022/01/14 14:30:14;;;;;;;31.20;9.93;;;2.30;99.90;;;;;;10343177;28;20041;-61
2022/01/14 14:35:18;;;;;;;27.17;8.98;;;1.90;99.90;;;;;;10345003;28;20045;-62
2022/01/14 14:40:26;;;;;;;28.90;10.02;;;1.80;99.90;;;;;;10345995;28;20562;-61
2022/01/14 14:45:29;;;;;;;26.20;9.88;;;1.90;99.90;;;;;;10348538;28;20133;-62
2022/01/14 14:50:31;;;;;;;27.15;9.20;;;2.10;99.90;;;;;;10343624;28;20077;-62
2022/01/14 14:55:34;;;;;;;35.92;10.43;;;1.90;99.90;;;;;;10343596;28;20497;-62
2022/01/14 15:00:35;;;;;;;24.17;8.82;;;1.90;99.90;;;;;;10344393;28;20447;-63
2022/01/14 15:05:39;;;;;;;29.45;9.45;;;1.90;99.90;;;;;;10342058;28;20516;-64
2022/01/14 15:10:42;;;;;;;64.35;10.15;;;1.90;99.90;;;;;;10340242;28;20072;-62
2022/01/14 15:20:45;;;;;;;37.05;9.02;;;1.40;99.90;;;;;;10339453;28;20567;-62
2022/01/14 15:25:47;;;;;;;30.52;10.48;;;1.30;99.90;;;;;;10327478;28;20055;-62
2022/01/14 15:30:49;;;;;;;29.27;9.20;;;1.40;99.90;;;;;;10340685;28;20482;-62
2022/01/14 15:35:54;;;;;;;30.25;9.38;;;1.40;99.90;;;;;;10338501;28;20073;-62
2022/01/14 15:40:57;;;;;;;31.42;9.48;;;1.30;99.90;;;;;;10339092;28;20444;-62
2022/01/14 15:46:01;;;;;;;25.05;10.07;;;1.30;99.90;;;;;;10344367;28;20053;-62
2022/01/14 15:51:03;;;;;;;35.28;11.52;;;1.20;99.90;;;;;;10339796;28;20436;-62
2022/01/14 15:56:05;;;;;;;33.88;9.77;;;1.30;99.90;;;;;;10341140;28;20124;-62
2022/01/14 16:01:07;;;;;;;23.35;8.52;;;1.40;99.90;;;;;;10339724;28;20054;-63
2022/01/14 16:06:11;;;;;;;42.40;10.05;;;1.40;99.90;;;;;;10344353;28;20146;-62
2022/01/14 16:11:12;;;;;;;33.28;10.68;;;1.30;99.90;;;;;;10342960;28;20089;-62
2022/01/14 16:16:14;;;;;;;29.23;8.95;;;1.40;99.90;;;;;;10337406;28;20127;-62
2022/01/14 16:21:18;;;;;;;31.67;10.57;;;1.30;99.90;;;;;;10343775;28;20069;-60
2022/01/14 16:26:19;;;;;;;41.15;9.20;;;1.40;99.90;;;;;;10339528;28;20050;-60
2022/01/14 16:31:21;;;;;;;56.95;10.07;;;1.30;99.90;;;;;;10346223;28;20045;-59
2022/01/14 16:36:25;;;;;;;34.67;10.00;;;1.20;99.90;;;;;;10340000;28;20492;-60
2022/01/14 16:41:26;;;;;;;64.78;10.25;;;1.10;99.90;;;;;;10345077;28;20115;-60
2022/01/14 16:46:28;;;;;;;77.72;10.57;;;1.00;99.90;;;;;;10337706;28;20062;-60
2022/01/14 16:51:33;;;;;;;42.22;10.73;;;0.90;99.90;;;;;;10342836;28;20077;-60
2022/01/14 16:56:35;;;;;;;47.85;8.85;;;0.90;99.90;;;;;;10342528;28;20077;-61
2022/01/14 17:01:36;;;;;;;105.20;12.55;;;0.70;99.90;;;;;;10338670;28;20054;-60
2022/01/14 17:06:39;;;;;;;58.80;11.25;;;0.80;99.90;;;;;;10341270;28;20395;-60
2022/01/14 17:11:41;;;;;;;35.95;9.85;;;1.10;99.90;;;;;;10337704;28;20551;-60
2022/01/14 17:16:44;;;;;;;70.53;10.43;;;0.90;99.90;;;;;;10347874;28;20060;-60
2022/01/14 17:21:45;;;;;;;67.18;12.77;;;0.80;99.90;;;;;;10348047;28;20050;-60
2022/01/14 17:26:47;;;;;;;40.83;10.10;;;0.90;99.90;;;;;;10347786;28;20069;-61
2022/01/14 17:31:50;;;;;;;47.40;10.63;;;1.00;99.90;;;;;;10348435;28;20566;-61
2022/01/14 17:36:53;;;;;;;62.70;10.52;;;1.00;99.90;;;;;;10344054;28;20057;-61
2022/01/14 17:41:55;;;;;;;92.78;12.13;;;0.90;99.90;;;;;;10347950;28;20065;-61
2022/01/14 17:46:57;;;;;;;98.63;12.30;;;0.90;99.90;;;;;;10346875;28;20451;-61
2022/01/14 17:52:01;;;;;;;41.35;11.65;;;0.80;99.90;;;;;;10337882;28;20346;-61
2022/01/14 17:57:04;;;;;;;83.45;13.50;;;0.90;99.90;;;;;;10341091;28;20084;-60
2022/01/14 18:02:05;;;;;;;73.00;12.00;;;1.00;99.90;;;;;;10336218;28;20104;-61
2022/01/14 18:07:07;;;;;;;125.72;13.75;;;0.90;99.90;;;;;;10345224;28;20152;-61
2022/01/14 18:12:19;;;;;;;60.05;12.82;;;0.90;99.90;;;;;;10345809;28;20131;-61
2022/01/14 18:17:21;;;;;;;50.05;11.60;;;1.00;99.90;;;;;;10342333;28;20481;-60
2022/01/14 18:22:22;;;;;;;31.45;10.40;;;1.00;99.90;;;;;;10345385;28;20057;-60
2022/01/14 18:27:24;;;;;;;62.35;11.10;;;1.00;99.90;;;;;;10344410;28;20077;-60
2022/01/14 18:32:26;;;;;;;70.53;10.88;;;1.00;99.90;;;;;;10333633;28;20069;-60
2022/01/14 18:37:28;;;;;;;63.58;11.73;;;1.00;99.90;;;;;;10345118;28;20583;-60
2022/01/14 18:42:29;;;;;;;53.13;10.65;;;1.00;99.90;;;;;;10363408;28;20054;-60
2022/01/14 18:47:33;;;;;;;84.50;15.10;;;1.10;99.90;;;;;;10341766;28;20169;-59
2022/01/14 18:52:39;;;;;;;73.28;9.85;;;1.10;99.90;;;;;;10345754;28;20481;-61
2022/01/14 18:57:41;;;;;;;72.20;10.32;;;1.10;99.90;;;;;;10341853;28;20141;-60
2022/01/14 19:02:43;;;;;;;75.63;9.90;;;1.10;99.90;;;;;;10343519;28;20050;-61
2022/01/14 19:07:44;;;;;;;41.58;8.18;;;1.10;99.90;;;;;;10344868;28;20097;-59
2022/01/14 19:12:48;;;;;;;66.45;8.75;;;1.00;99.90;;;;;;10345450;28;20440;-62
2022/01/14 19:17:50;;;;;;;89.63;11.48;;;1.00;99.90;;;;;;10343931;28;20052;-60
2022/01/14 19:22:51;;;;;;;85.72;11.52;;;0.90;99.90;;;;;;10338067;28;20077;-61
2022/01/14 19:27:53;;;;;;;51.05;9.48;;;0.90;99.90;;;;;;10344498;28;20204;-60
2022/01/14 19:32:55;;;;;;;35.83;10.15;;;1.00;99.90;;;;;;10345300;28;20053;-60
2022/01/14 19:37:56;;;;;;;40.45;9.50;;;1.00;99.90;;;;;;10344536;28;20050;-59
2022/01/14 19:42:59;;;;;;;46.55;9.40;;;1.10;99.90;;;;;;10342944;28;20054;-60
2022/01/14 19:48:04;;;;;;;29.40;8.18;;;1.10;99.90;;;;;;10344432;28;20115;-60
2022/01/14 19:53:11;;;;;;;34.10;8.13;;;1.20;99.90;;;;;;10343084;28;20070;-60
2022/01/14 19:58:13;;;;;;;49.13;7.68;;;1.20;99.90;;;;;;10342691;28;20100;-60
2022/01/14 20:03:16;;;;;;;41.30;7.97;;;1.20;99.90;;;;;;10345089;28;20100;-59
2022/01/14 20:08:18;;;;;;;35.53;7.68;;;1.20;99.90;;;;;;10336204;28;20480;-59
2022/01/14 20:13:21;;;;;;;37.75;7.90;;;1.30;99.90;;;;;;10347467;28;20143;-60
2022/01/14 20:18:22;;;;;;;46.97;9.15;;;1.30;99.90;;;;;;10346836;28;20057;-59
2022/01/14 20:23:25;;;;;;;50.33;8.32;;;1.30;99.90;;;;;;10339448;28;20460;-60
2022/01/14 20:28:27;;;;;;;41.97;8.45;;;1.30;99.90;;;;;;10345280;28;20076;-59
2022/01/14 20:33:31;;;;;;;42.72;8.55;;;1.30;99.90;;;;;;10341689;28;20513;-61
2022/01/14 20:38:34;;;;;;;29.30;8.10;;;1.30;99.90;;;;;;10343962;28;20050;-61
2022/01/14 20:43:42;;;;;;;28.35;7.25;;;1.30;99.90;;;;;;10344339;28;20090;-60
2022/01/14 20:48:44;;;;;;;28.58;7.93;;;1.30;99.90;;;;;;10341422;28;20129;-60
2022/01/14 20:53:46;;;;;;;32.25;7.00;;;1.30;99.90;;;;;;10345149;28;20069;-60
2022/01/14 20:58:47;;;;;;;29.88;7.47;;;1.30;99.90;;;;;;10342453;28;20116;-63
2022/01/14 21:03:50;;;;;;;32.78;8.55;;;1.40;99.90;;;;;;10347036;28;20077;-61
2022/01/14 21:08:54;;;;;;;33.13;7.32;;;1.40;99.90;;;;;;10341567;28;20054;-60
2022/01/14 21:13:56;;;;;;;51.95;11.35;;;1.40;99.90;;;;;;10342599;28;20481;-60
2022/01/14 21:18:58;;;;;;;40.17;7.35;;;1.50;99.90;;;;;;10344136;28;20047;-60
2022/01/14 21:24:00;;;;;;;27.83;7.13;;;1.40;99.90;;;;;;10340930;28;20054;-61
2022/01/14 21:29:02;;;;;;;22.58;7.20;;;1.40;99.90;;;;;;10339296;28;20111;-61
2022/01/14 21:34:04;;;;;;;28.48;6.68;;;1.40;99.90;;;;;;10340610;28;20097;-60
2022/01/14 21:39:05;;;;;;;24.10;5.63;;;1.40;99.90;;;;;;10341410;28;20469;-61
2022/01/14 21:44:07;;;;;;;24.48;6.47;;;1.40;99.90;;;;;;10338628;28;20132;-60
2022/01/14 21:49:10;;;;;;;26.92;6.43;;;1.40;99.90;;;;;;10340911;28;20084;-61
2022/01/14 21:54:12;;;;;;;23.50;6.82;;;1.40;99.90;;;;;;10343612;28;20120;-60
2022/01/14 21:59:14;;;;;;;23.63;6.70;;;1.40;99.90;;;;;;10340476;28;20125;-61
2022/01/14 22:04:15;;;;;;;23.73;5.78;;;1.40;99.90;;;;;;10351035;28;20092;-60
2022/01/14 22:09:18;;;;;;;28.30;7.25;;;1.40;99.90;;;;;;10347579;28;20111;-60
2022/01/14 22:14:27;;;;;;;25.45;6.50;;;1.40;99.90;;;;;;10347134;28;21482;-60
2022/01/14 22:19:29;;;;;;;22.65;6.28;;;1.40;99.90;;;;;;10343422;28;20129;-60
2022/01/14 22:24:30;;;;;;;38.83;6.82;;;1.40;99.90;;;;;;10344146;28;20081;-59
2022/01/14 22:29:32;;;;;;;25.75;6.15;;;1.40;99.90;;;;;;10349401;28;20049;-60
2022/01/14 22:34:34;;;;;;;25.88;6.43;;;1.40;99.90;;;;;;10345042;28;20108;-60
2022/01/14 22:39:36;;;;;;;25.67;5.22;;;1.40;99.90;;;;;;10347985;28;20053;-60
2022/01/14 22:44:37;;;;;;;22.35;5.57;;;1.40;99.90;;;;;;10350890;28;20513;-59
2022/01/14 22:49:40;;;;;;;20.58;5.78;;;1.40;99.90;;;;;;10349261;28;20042;-59
2022/01/14 22:54:42;;;;;;;22.08;6.25;;;1.30;99.90;;;;;;10346975;28;20056;-60
2022/01/14 22:59:43;;;;;;;23.95;6.60;;;1.30;99.90;;;;;;10350376;28;20149;-59
2022/01/14 23:04:45;;;;;;;21.52;5.90;;;1.30;99.90;;;;;;10348071;28;20073;-60
2022/01/14 23:09:46;;;;;;;21.95;5.80;;;1.30;99.90;;;;;;10339958;28;20112;-59
2022/01/14 23:14:48;;;;;;;25.98;5.93;;;1.40;99.90;;;;;;10347049;28;21211;-60
2022/01/14 23:19:50;;;;;;;14.25;4.97;;;1.40;99.90;;;;;;10337187;28;20073;-61
2022/01/14 23:24:52;;;;;;;23.67;5.90;;;1.40;99.90;;;;;;10345805;28;20444;-60
2022/01/14 23:29:53;;;;;;;18.83;4.85;;;1.40;99.90;;;;;;10342870;28;20134;-60
2022/01/14 23:34:55;;;;;;;16.75;6.07;;;1.40;99.90;;;;;;10345987;28;20073;-59
2022/01/14 23:39:56;;;;;;;22.85;6.70;;;1.50;99.90;;;;;;10346504;28;20166;-60
2022/01/14 23:45:22;;;;;;;17.20;6.00;;;1.40;99.90;;;;;;10338636;28;20073;-60
2022/01/14 23:50:24;;;;;;;23.73;5.40;;;1.40;99.90;;;;;;10337841;28;20520;-60
2022/01/14 23:55:26;;;;;;;17.42;5.53;;;1.50;99.90;;;;;;10349985;28;20037;-60
